Main page
METAR-TAF:

METAR-TAF

Airports :

Boulder City Municipal Airport

Boulder City, Nevada, United States

latitude: 35-56-50N, longitude: 114-51-37W, elevation: 2201 ft

Current weather observation

The report was made 17 minutes ago, at 05:55 UTC
Wind 9 mph from the South/Southeast
Temperature 57°F
Humidity 41%
Pressure 29.90 in. Hg
Visibility: 10 miles
Clear sky

METAR: KBVU 020555Z AUTO 15008KT 10SM CLR 14/01 A2990 RMK AO2

Time: 22:12 (06:12 UTC)


TAF: missing

Weather observations and forecasts of more than 4000 airports (METAR and TAF reports).

The available stations are represented by yellow and red dots on the map.

Hover mouse over dot to see the name of the station.

Then click to see weather observations and forecasts.

To change the map : click on the green buttons with a black cross to zoom in, on the green button with a dash to zoom out, or on the green arrows for adjacent maps.


METAR-TAF: